createdAt,value
2019-02-09T00:01:22.960Z,16.30
2019-02-09T00:03:57.178Z,15.57
2019-02-09T00:06:29.405Z,14.57
2019-02-09T00:09:01.771Z,16.00
2019-02-09T00:11:35.833Z,15.50
2019-02-09T00:14:08.184Z,15.30
2019-02-09T00:16:40.483Z,15.53
2019-02-09T00:19:12.860Z,16.00
2019-02-09T00:21:45.168Z,15.30
2019-02-09T00:24:17.538Z,14.93
2019-02-09T00:26:49.836Z,15.83
2019-02-09T00:29:22.153Z,14.93
2019-02-09T00:31:54.614Z,13.90
2019-02-09T00:34:28.116Z,15.38
2019-02-09T00:37:00.448Z,15.77
2019-02-09T00:39:32.778Z,15.68
2019-02-09T00:42:05.125Z,14.65
2019-02-09T00:44:38.542Z,15.23
2019-02-09T00:47:10.924Z,14.65
2019-02-09T00:49:43.226Z,15.03
2019-02-09T00:52:15.545Z,15.53
2019-02-09T00:54:47.899Z,16.35
2019-02-09T00:57:20.184Z,15.10
2019-02-09T00:59:54.317Z,16.45
2019-02-09T01:02:26.435Z,16.02
2019-02-09T01:04:58.730Z,14.90
2019-02-09T01:07:31.046Z,15.50
2019-02-09T01:10:03.348Z,16.12
2019-02-09T01:12:35.726Z,14.60
2019-02-09T01:15:10.728Z,13.85
2019-02-09T01:17:43.127Z,13.97
2019-02-09T01:20:18.755Z,13.20
2019-02-09T01:22:51.297Z,14.47
2019-02-09T01:25:23.534Z,13.37
2019-02-09T01:27:55.914Z,14.07
2019-02-09T01:30:28.736Z,12.30
2019-02-09T01:33:01.121Z,15.48
2019-02-09T01:35:33.469Z,13.37
2019-02-09T01:38:05.822Z,14.00
2019-02-09T01:40:38.084Z,14.10
2019-02-09T01:43:10.414Z,13.53
2019-02-09T01:45:42.686Z,13.08
2019-02-09T01:48:15.018Z,14.33
2019-02-09T01:50:47.350Z,14.43
2019-02-09T01:53:19.623Z,13.53
2019-02-09T01:55:51.951Z,15.25
2019-02-09T01:58:25.314Z,14.18
2019-02-09T02:00:57.567Z,13.07
2019-02-09T02:03:29.885Z,14.33
2019-02-09T02:06:02.179Z,13.17
2019-02-09T02:08:34.423Z,14.95
2019-02-09T02:11:06.867Z,15.28
2019-02-09T02:13:39.170Z,15.50
2019-02-09T02:16:11.413Z,14.75
2019-02-09T02:18:43.676Z,14.10
2019-02-09T02:21:15.977Z,14.77
2019-02-09T02:23:48.254Z,14.95
2019-02-09T02:26:20.538Z,17.17
2019-02-09T02:28:52.818Z,14.87
2019-02-09T02:31:25.208Z,15.32
2019-02-09T02:33:57.509Z,16.43
2019-02-09T02:36:29.771Z,15.28
2019-02-09T02:39:02.078Z,15.30
2019-02-09T02:41:35.931Z,15.03
2019-02-09T02:44:08.219Z,16.13
2019-02-09T02:46:40.554Z,14.57
2019-02-09T02:49:12.928Z,14.78
2019-02-09T02:51:45.338Z,13.93
2019-02-09T02:54:17.649Z,15.53
2019-02-09T02:56:49.891Z,16.77
2019-02-09T02:59:22.164Z,16.82
2019-02-09T03:01:54.414Z,13.50
2019-02-09T03:04:26.832Z,14.17
2019-02-09T03:06:59.064Z,14.50
2019-02-09T03:09:31.413Z,15.73
2019-02-09T03:12:03.675Z,13.88
2019-02-09T03:14:35.952Z,15.20
2019-02-09T03:17:08.280Z,15.32
2019-02-09T03:19:40.518Z,14.20
2019-02-09T03:22:13.149Z,14.05
2019-02-09T03:24:45.753Z,13.68
2019-02-09T03:27:18.062Z,12.67
2019-02-09T03:29:50.346Z,13.83
2019-02-09T03:32:22.697Z,14.73
2019-02-09T03:34:54.927Z,12.45
2019-02-09T03:37:27.222Z,13.32
2019-02-09T03:40:00.560Z,13.57
2019-02-09T03:42:32.860Z,13.10
2019-02-09T03:45:07.318Z,13.90
2019-02-09T03:47:39.691Z,12.53
2019-02-09T03:50:12.946Z,12.90
2019-02-09T03:52:45.273Z,12.20
2019-02-09T03:55:17.637Z,14.40
2019-02-09T03:57:49.925Z,12.77
2019-02-09T04:00:24.252Z,13.03
2019-02-09T04:02:57.097Z,12.10
2019-02-09T04:05:29.699Z,14.35
2019-02-09T04:08:02.109Z,13.40
2019-02-09T04:10:34.770Z,12.20
2019-02-09T04:13:07.100Z,12.13
2019-02-09T04:15:39.373Z,12.23
2019-02-09T04:18:11.692Z,12.35
2019-02-09T04:20:44.020Z,11.53
2019-02-09T04:23:16.245Z,11.57
2019-02-09T04:25:48.554Z,12.03
2019-02-09T04:28:20.835Z,12.68
2019-02-09T04:30:53.078Z,11.85
2019-02-09T04:33:25.443Z,13.35
2019-02-09T04:35:57.831Z,12.80
2019-02-09T04:38:30.119Z,12.33
2019-02-09T04:41:02.511Z,12.28
2019-02-09T04:43:34.832Z,13.00
2019-02-09T04:46:07.069Z,11.93
2019-02-09T04:48:39.408Z,10.83
2019-02-09T04:51:11.676Z,13.05
2019-02-09T04:53:43.940Z,11.68
2019-02-09T04:56:26.065Z,11.67
2019-02-09T04:59:03.625Z,12.20
2019-02-09T05:01:35.989Z,12.30
2019-02-09T05:04:08.293Z,11.57
2019-02-09T05:06:40.547Z,10.80
2019-02-09T05:09:12.919Z,10.83
2019-02-09T05:11:45.185Z,11.90
2019-02-09T05:14:17.438Z,11.00
2019-02-09T05:16:49.782Z,11.22
2019-02-09T05:19:22.102Z,10.67
2019-02-09T05:21:54.384Z,11.20
2019-02-09T05:24:26.744Z,10.45
2019-02-09T05:26:59.073Z,10.43
2019-02-09T05:29:31.444Z,10.27
2019-02-09T05:32:03.700Z,11.97
2019-02-09T05:34:35.983Z,10.63
2019-02-09T05:37:08.350Z,10.60
2019-02-09T05:39:40.683Z,10.20
2019-02-09T05:42:12.951Z,10.25
2019-02-09T05:44:45.282Z,9.48
2019-02-09T05:47:17.615Z,9.67
2019-02-09T05:49:49.867Z,9.60
2019-02-09T05:52:22.227Z,9.73
2019-02-09T05:54:54.565Z,9.17
2019-02-09T05:57:26.887Z,9.13
2019-02-09T05:59:59.158Z,11.67
2019-02-09T06:02:31.446Z,9.73
2019-02-09T06:05:05.019Z,10.53
2019-02-09T06:07:37.356Z,9.27
2019-02-09T06:10:13.617Z,10.17
2019-02-09T06:12:46.027Z,9.18
2019-02-09T06:15:18.702Z,9.68
2019-02-09T06:17:51.081Z,9.05
2019-02-09T06:20:25.355Z,10.47
2019-02-09T06:22:58.024Z,9.27
2019-02-09T06:25:30.434Z,9.38
2019-02-09T06:28:02.752Z,9.60
2019-02-09T06:30:34.990Z,10.63
2019-02-09T06:33:09.318Z,8.88
2019-02-09T06:35:41.684Z,9.70
2019-02-09T06:38:14.087Z,9.80
2019-02-09T06:40:46.317Z,10.10
2019-02-09T06:43:18.546Z,10.80
2019-02-09T06:45:50.862Z,10.63
2019-02-09T06:48:28.314Z,9.73
2019-02-09T06:51:02.158Z,10.32
2019-02-09T06:53:34.618Z,10.07
2019-02-09T06:56:07.028Z,10.72
2019-02-09T06:58:39.339Z,10.63
2019-02-09T07:01:11.611Z,11.63
2019-02-09T07:03:43.881Z,11.75
2019-02-09T07:06:16.572Z,11.05
2019-02-09T07:08:48.913Z,12.93
2019-02-09T07:11:21.162Z,11.15
2019-02-09T07:13:53.436Z,12.23
2019-02-09T07:16:25.826Z,10.50
2019-02-09T07:18:58.278Z,10.97
2019-02-09T07:21:30.580Z,10.90
2019-02-09T07:24:02.889Z,10.90
2019-02-09T07:26:35.131Z,11.57
2019-02-09T07:29:07.424Z,12.45
2019-02-09T07:31:39.727Z,12.13
2019-02-09T07:34:12.000Z,11.63
2019-02-09T07:36:44.244Z,12.50
2019-02-09T07:39:16.523Z,12.78
2019-02-09T07:41:48.867Z,12.25
2019-02-09T07:44:21.142Z,13.08
2019-02-09T07:46:53.611Z,12.82
2019-02-09T07:49:25.876Z,12.93
2019-02-09T07:51:58.228Z,13.67
2019-02-09T07:54:30.500Z,12.37
2019-02-09T07:57:02.842Z,14.03
2019-02-09T07:59:35.134Z,14.40
2019-02-09T08:02:07.469Z,12.27
2019-02-09T08:04:39.940Z,15.43
2019-02-09T08:07:12.659Z,38.98
2019-02-09T08:09:45.007Z,46.70
2019-02-09T08:12:17.301Z,18.48
2019-02-09T08:14:49.624Z,15.00
2019-02-09T08:17:21.921Z,15.83
2019-02-09T08:19:54.301Z,13.67
2019-02-09T08:22:26.600Z,14.80
2019-02-09T08:24:58.990Z,13.58
2019-02-09T08:27:31.272Z,14.33
2019-02-09T08:30:03.760Z,13.60
2019-02-09T08:32:36.140Z,12.33
2019-02-09T08:35:09.355Z,11.68
2019-02-09T08:37:41.667Z,12.33
2019-02-09T08:40:14.412Z,12.63
2019-02-09T08:42:46.645Z,12.13
2019-02-09T08:45:19.813Z,12.10
2019-02-09T08:47:52.154Z,12.83
2019-02-09T08:50:27.366Z,13.93
2019-02-09T08:52:59.666Z,12.25
2019-02-09T08:55:31.996Z,12.50
2019-02-09T08:58:04.349Z,12.68
2019-02-09T09:00:38.533Z,13.20
2019-02-09T09:03:11.105Z,11.90
2019-02-09T09:05:43.407Z,12.00
2019-02-09T09:08:16.607Z,11.88
2019-02-09T09:10:48.970Z,11.40
2019-02-09T09:13:21.194Z,11.53
2019-02-09T09:15:55.410Z,11.40
2019-02-09T09:18:28.788Z,12.03
2019-02-09T09:21:03.095Z,12.43
2019-02-09T09:23:35.332Z,12.20
2019-02-09T09:26:07.782Z,12.15
2019-02-09T09:28:40.317Z,10.70
2019-02-09T09:31:12.601Z,10.78
2019-02-09T09:33:44.923Z,10.80
2019-02-09T09:36:17.235Z,11.30
2019-02-09T09:38:49.621Z,10.65
2019-02-09T09:41:21.950Z,10.93
2019-02-09T09:43:54.280Z,10.48
2019-02-09T09:46:26.553Z,10.10
2019-02-09T09:48:58.821Z,11.73
2019-02-09T09:51:31.055Z,10.20
2019-02-09T09:54:03.315Z,10.82
2019-02-09T09:56:35.559Z,11.03
2019-02-09T09:59:07.823Z,11.08
2019-02-09T10:01:40.153Z,11.65
2019-02-09T10:04:12.459Z,12.00
2019-02-09T10:06:44.723Z,12.70
2019-02-09T10:09:16.968Z,11.95
2019-02-09T10:11:49.244Z,11.03
2019-02-09T10:14:21.564Z,11.18
2019-02-09T10:16:53.829Z,10.00
2019-02-09T10:19:26.101Z,10.38
2019-02-09T10:21:58.345Z,10.68
2019-02-09T10:24:30.590Z,10.18
2019-02-09T10:27:02.952Z,10.08
2019-02-09T10:29:35.246Z,10.35
2019-02-09T10:32:07.470Z,11.80
2019-02-09T10:34:39.734Z,11.65
2019-02-09T10:37:11.974Z,11.15
2019-02-09T10:39:44.324Z,11.15
2019-02-09T10:42:16.571Z,10.13
2019-02-09T10:44:48.825Z,9.78
2019-02-09T10:47:21.051Z,9.88
2019-02-09T10:49:53.318Z,8.75
2019-02-09T10:52:25.574Z,8.43
2019-02-09T10:54:57.915Z,9.53
2019-02-09T10:57:30.140Z,8.80
2019-02-09T11:00:02.464Z,8.98
2019-02-09T11:02:34.976Z,9.35
2019-02-09T11:05:07.960Z,9.28
2019-02-09T11:07:40.345Z,8.88
2019-02-09T11:10:14.588Z,8.13
2019-02-09T11:12:47.713Z,8.33
2019-02-09T11:15:20.729Z,7.12
2019-02-09T11:17:53.432Z,6.70
2019-02-09T11:20:25.876Z,6.72
2019-02-09T11:22:58.297Z,6.40
2019-02-09T11:25:30.578Z,5.95
2019-02-09T11:28:02.950Z,5.62
2019-02-09T11:30:35.462Z,5.80
2019-02-09T11:33:07.921Z,5.40
2019-02-09T11:35:40.326Z,5.65
2019-02-09T11:38:13.688Z,5.47
2019-02-09T11:40:46.143Z,5.70
2019-02-09T11:43:18.464Z,5.00
2019-02-09T11:45:50.761Z,5.17
2019-02-09T11:48:23.036Z,5.45
2019-02-09T11:50:55.307Z,5.08
2019-02-09T11:53:28.145Z,5.45
2019-02-09T11:56:00.580Z,4.67
2019-02-09T11:58:32.942Z,4.55
2019-02-09T12:01:06.312Z,4.65
2019-02-09T12:03:39.453Z,4.50
2019-02-09T12:06:12.465Z,4.78
2019-02-09T12:08:44.879Z,4.35
2019-02-09T12:11:17.313Z,4.80
2019-02-09T12:13:55.145Z,4.22
2019-02-09T12:16:23.604Z,5.10
2019-02-09T12:18:56.011Z,4.28
2019-02-09T12:21:28.534Z,4.08
2019-02-09T12:24:00.841Z,4.58
2019-02-09T12:26:33.314Z,4.08
2019-02-09T12:29:05.976Z,4.22
2019-02-09T12:31:38.304Z,3.40
2019-02-09T12:34:10.592Z,4.58
2019-02-09T12:36:42.945Z,4.47
2019-02-09T12:39:15.329Z,4.70
2019-02-09T12:41:47.633Z,4.40
2019-02-09T12:44:19.910Z,3.92
2019-02-09T12:46:52.270Z,4.00
2019-02-09T12:49:25.587Z,4.05
2019-02-09T12:51:57.879Z,4.87
2019-02-09T12:54:30.204Z,4.45
2019-02-09T12:57:02.581Z,4.22
2019-02-09T12:59:39.667Z,3.98
2019-02-09T13:02:12.203Z,3.75
2019-02-09T13:05:01.236Z,4.08
2019-02-09T13:07:33.709Z,4.53
2019-02-09T13:10:06.876Z,4.28
2019-02-09T13:12:39.367Z,4.28
2019-02-09T13:15:14.637Z,3.62
2019-02-09T13:17:47.264Z,3.75
2019-02-09T13:20:25.612Z,4.53
2019-02-09T13:22:58.340Z,3.92
2019-02-09T13:25:30.808Z,4.40
2019-02-09T13:28:03.157Z,5.30
2019-02-09T13:30:35.863Z,5.62
2019-02-09T13:33:09.389Z,6.15
2019-02-09T13:35:42.096Z,6.80
2019-02-09T13:38:14.450Z,6.30
2019-02-09T13:40:46.867Z,5.33
2019-02-09T13:43:19.302Z,5.72
2019-02-09T13:45:53.203Z,5.58
2019-02-09T13:48:25.661Z,5.60
2019-02-09T13:50:58.164Z,5.65
2019-02-09T13:53:31.490Z,4.95
2019-02-09T13:56:03.853Z,5.22
2019-02-09T13:58:36.237Z,5.05
2019-02-09T14:01:08.682Z,5.50
2019-02-09T14:03:46.662Z,5.33
2019-02-09T14:06:15.258Z,4.92
2019-02-09T14:08:48.745Z,5.53
2019-02-09T14:11:21.037Z,5.40
2019-02-09T14:13:53.317Z,5.05
2019-02-09T14:16:25.787Z,5.55
2019-02-09T14:18:58.083Z,5.72
2019-02-09T14:21:30.610Z,6.25
2019-02-09T14:24:02.862Z,5.50
2019-02-09T14:26:35.418Z,5.75
2019-02-09T14:29:07.989Z,5.85
2019-02-09T14:31:40.483Z,6.17
2019-02-09T14:34:13.119Z,5.72
2019-02-09T14:36:46.571Z,5.40
2019-02-09T14:39:21.096Z,5.78
2019-02-09T14:41:54.456Z,6.33
2019-02-09T14:44:26.974Z,5.58
2019-02-09T14:46:59.500Z,5.60
2019-02-09T14:49:31.931Z,5.58
2019-02-09T14:52:04.857Z,5.87
2019-02-09T14:54:37.194Z,5.40
2019-02-09T14:57:09.620Z,5.37
2019-02-09T14:59:41.980Z,5.67
2019-02-09T15:02:14.273Z,7.25
2019-02-09T15:04:46.609Z,7.87
2019-02-09T15:07:18.875Z,9.45
2019-02-09T15:09:51.317Z,9.25
2019-02-09T15:12:23.607Z,8.33
2019-02-09T15:14:55.886Z,6.62
2019-02-09T15:17:28.297Z,6.30
2019-02-09T15:20:00.637Z,6.95
2019-02-09T15:22:33.027Z,8.43
2019-02-09T15:25:06.420Z,7.45
2019-02-09T15:27:38.684Z,8.23
2019-02-09T15:30:13.828Z,7.37
2019-02-09T15:32:46.220Z,7.00
2019-02-09T15:35:18.553Z,7.33
2019-02-09T15:37:50.829Z,6.87
2019-02-09T15:40:24.308Z,6.72
2019-02-09T15:42:56.683Z,7.37
2019-02-09T15:45:29.278Z,7.03
2019-02-09T15:48:01.654Z,7.97
2019-02-09T15:50:35.136Z,7.97
2019-02-09T15:53:07.492Z,7.85
2019-02-09T15:55:39.906Z,8.35
2019-02-09T15:58:12.215Z,8.25
2019-02-09T16:00:44.564Z,7.45
2019-02-09T16:03:16.893Z,7.20
2019-02-09T16:05:49.185Z,7.03
2019-02-09T16:08:21.594Z,6.35
2019-02-09T16:10:53.961Z,6.05
2019-02-09T16:13:26.383Z,6.17
2019-02-09T16:15:59.085Z,6.83
2019-02-09T16:18:31.521Z,6.45
2019-02-09T16:21:04.029Z,6.92
2019-02-09T16:23:36.458Z,7.72
2019-02-09T16:26:19.770Z,7.70
2019-02-09T16:28:52.194Z,7.30
2019-02-09T16:31:24.655Z,6.80
2019-02-09T16:33:57.106Z,6.33
2019-02-09T16:36:29.440Z,5.75
2019-02-09T16:39:01.936Z,6.03
2019-02-09T16:41:35.794Z,5.80
2019-02-09T16:44:08.291Z,5.80
2019-02-09T16:46:40.635Z,6.08
2019-02-09T16:49:15.343Z,5.97
2019-02-09T16:51:47.661Z,5.40
2019-02-09T16:54:20.172Z,6.87
2019-02-09T16:56:52.528Z,6.60
2019-02-09T16:59:26.692Z,6.22
2019-02-09T17:01:59.021Z,5.60
2019-02-09T17:04:33.325Z,6.60
2019-02-09T17:07:05.898Z,5.85
2019-02-09T17:09:38.259Z,6.85
2019-02-09T17:12:10.655Z,5.87
2019-02-09T17:14:43.002Z,6.62
2019-02-09T17:17:15.498Z,5.95
2019-02-09T17:19:49.379Z,6.55
2019-02-09T17:22:21.780Z,6.30
2019-02-09T17:24:54.108Z,6.30
2019-02-09T17:27:26.491Z,5.70
2019-02-09T17:29:58.802Z,6.35
2019-02-09T17:32:31.203Z,7.15
2019-02-09T17:35:03.653Z,6.30
2019-02-09T17:37:36.088Z,6.78
2019-02-09T17:40:12.177Z,9.13
2019-02-09T17:42:44.545Z,11.35
2019-02-09T17:45:19.888Z,14.47
2019-02-09T17:47:52.219Z,13.43
2019-02-09T17:50:24.746Z,11.85
2019-02-09T17:52:57.189Z,9.95
2019-02-09T17:55:29.734Z,9.68
2019-02-09T17:58:02.271Z,9.13
2019-02-09T18:00:39.994Z,9.05
2019-02-09T18:03:12.570Z,9.80
2019-02-09T18:05:45.095Z,9.28
2019-02-09T18:08:17.583Z,8.88
2019-02-09T18:10:49.968Z,8.70
2019-02-09T18:13:22.591Z,7.78
2019-02-09T18:15:54.938Z,7.78
2019-02-09T18:18:27.284Z,7.92
2019-02-09T18:20:59.674Z,6.03
2019-02-09T18:23:32.258Z,5.60
2019-02-09T18:26:04.989Z,6.03
2019-02-09T18:28:37.433Z,6.03
2019-02-09T18:31:09.990Z,5.62
2019-02-09T18:33:42.416Z,5.60
2019-02-09T18:36:14.865Z,6.62
2019-02-09T18:38:48.406Z,6.55
2019-02-09T18:41:20.842Z,6.15
2019-02-09T18:43:53.278Z,6.12
2019-02-09T18:46:25.959Z,5.92
2019-02-09T18:48:58.536Z,5.80
2019-02-09T18:51:31.067Z,5.67
2019-02-09T18:54:03.579Z,5.60
2019-02-09T18:56:36.200Z,5.25
2019-02-09T18:59:08.912Z,6.42
2019-02-09T19:01:41.428Z,5.30
2019-02-09T19:04:16.935Z,5.10
2019-02-09T19:06:50.295Z,5.95
2019-02-09T19:09:25.884Z,6.47
2019-02-09T19:11:58.386Z,7.20
2019-02-09T19:14:31.013Z,6.35
2019-02-09T19:17:03.522Z,6.53
2019-02-09T19:19:36.213Z,6.12
2019-02-09T19:22:09.494Z,6.35
2019-02-09T19:24:41.974Z,5.47
2019-02-09T19:27:14.523Z,6.37
2019-02-09T19:29:46.879Z,6.00
2019-02-09T19:32:24.409Z,5.75
2019-02-09T19:34:58.379Z,5.50
2019-02-09T19:37:30.852Z,5.20
2019-02-09T19:40:03.197Z,5.25
2019-02-09T19:42:35.743Z,5.55
2019-02-09T19:45:11.809Z,5.08
2019-02-09T19:47:44.358Z,5.53
2019-02-09T19:50:19.934Z,5.78
2019-02-09T19:52:52.497Z,5.97
2019-02-09T19:55:26.850Z,5.97
2019-02-09T19:57:59.305Z,5.83
2019-02-09T20:00:34.539Z,5.35
2019-02-09T20:03:08.103Z,5.40
2019-02-09T20:05:40.667Z,5.97
2019-02-09T20:08:13.518Z,6.62
2019-02-09T20:10:45.979Z,5.75
2019-02-09T20:13:18.542Z,6.20
2019-02-09T20:15:51.474Z,5.60
2019-02-09T20:18:23.818Z,5.15
2019-02-09T20:20:57.008Z,6.20
2019-02-09T20:23:29.500Z,5.92
2019-02-09T20:26:02.083Z,5.85
2019-02-09T20:28:34.947Z,6.00
2019-02-09T20:31:16.764Z,5.50
2019-02-09T20:33:57.326Z,5.55
2019-02-09T20:36:29.915Z,6.33
2019-02-09T20:39:08.317Z,7.15
2019-02-09T20:41:41.614Z,6.53
2019-02-09T20:44:14.152Z,6.35
2019-02-09T20:46:46.598Z,6.80
2019-02-09T20:49:19.159Z,6.45
2019-02-09T20:51:51.569Z,6.10
2019-02-09T20:54:23.946Z,6.58
2019-02-09T20:57:09.373Z,5.72
2019-02-09T20:59:40.216Z,6.12
2019-02-09T21:02:12.682Z,5.95
2019-02-09T21:04:45.174Z,6.15
2019-02-09T21:07:24.563Z,5.45
2019-02-09T21:09:56.198Z,5.30
2019-02-09T21:12:30.491Z,5.12
2019-02-09T21:15:02.935Z,4.30
2019-02-09T21:17:35.647Z,4.60
2019-02-09T21:20:08.279Z,3.65
2019-02-09T21:22:40.809Z,3.20
2019-02-09T21:25:17.879Z,2.83
2019-02-09T21:27:52.152Z,2.62
2019-02-09T21:30:25.132Z,2.50
2019-02-09T21:33:11.832Z,2.65
2019-02-09T21:35:44.597Z,3.00
2019-02-09T21:38:17.011Z,2.85
2019-02-09T21:40:49.447Z,3.00
2019-02-09T21:43:21.953Z,2.70
2019-02-09T21:45:54.503Z,2.72
2019-02-09T21:48:27.173Z,3.22
2019-02-09T21:50:59.550Z,3.15
2019-02-09T21:53:31.978Z,2.67
2019-02-09T21:56:04.512Z,2.42
2019-02-09T21:58:38.107Z,2.62
2019-02-09T22:01:10.727Z,2.62
2019-02-09T22:03:44.583Z,2.42
2019-02-09T22:06:17.002Z,2.65
2019-02-09T22:08:49.728Z,2.98
2019-02-09T22:11:22.382Z,3.50
2019-02-09T22:13:54.863Z,3.90
2019-02-09T22:16:27.492Z,4.12
2019-02-09T22:19:00.960Z,4.15
2019-02-09T22:21:33.688Z,4.35
2019-02-09T22:24:06.141Z,4.60
2019-02-09T22:26:40.229Z,4.33
2019-02-09T22:29:12.770Z,4.05
2019-02-09T22:31:51.189Z,4.08
2019-02-09T22:34:21.229Z,3.83
2019-02-09T22:36:53.660Z,3.75
2019-02-09T22:39:27.674Z,4.05
2019-02-09T22:42:01.886Z,3.75
2019-02-09T22:44:35.266Z,3.67
2019-02-09T22:47:07.551Z,4.17
2019-02-09T22:49:39.968Z,3.58
2019-02-09T22:52:12.395Z,3.47
2019-02-09T22:54:44.687Z,3.77
2019-02-09T22:57:17.137Z,3.70
2019-02-09T22:59:49.499Z,3.60
2019-02-09T23:02:21.943Z,3.58
2019-02-09T23:05:44.556Z,3.80
2019-02-09T23:08:16.986Z,3.30
2019-02-09T23:10:49.353Z,3.75
2019-02-09T23:13:21.704Z,3.47
2019-02-09T23:15:54.104Z,3.75
2019-02-09T23:18:26.501Z,3.42
2019-02-09T23:20:58.878Z,3.50
2019-02-09T23:23:31.226Z,4.05
2019-02-09T23:26:03.625Z,3.72
2019-02-09T23:28:35.863Z,2.90
2019-02-09T23:31:08.174Z,3.33
2019-02-09T23:33:40.558Z,3.08
2019-02-09T23:36:16.296Z,3.50
2019-02-09T23:38:47.150Z,3.17
2019-02-09T23:41:19.503Z,2.87
2019-02-09T23:43:51.925Z,3.35
2019-02-09T23:46:24.872Z,3.20
2019-02-09T23:48:57.219Z,2.60
2019-02-09T23:51:29.521Z,2.60
2019-02-09T23:54:02.626Z,2.92
2019-02-09T23:56:34.989Z,2.75
2019-02-09T23:59:07.484Z,2.75
